createdAt,value
2022-10-25T00:03:05.467Z,13.89
2022-10-25T00:08:45.325Z,13.81
2022-10-25T00:14:33.826Z,13.76
2022-10-25T00:20:16.584Z,13.83
2022-10-25T00:25:57.413Z,13.87
2022-10-25T00:31:41.382Z,13.88
2022-10-25T00:37:31.502Z,13.91
2022-10-25T00:43:11.460Z,13.95
2022-10-25T00:48:51.344Z,14.03
2022-10-25T00:57:41.642Z,14.22
2022-10-25T01:03:21.484Z,14.16
2022-10-25T01:09:03.494Z,14.13
2022-10-25T01:14:45.565Z,14.11
2022-10-25T01:20:46.509Z,14.02
2022-10-25T01:27:03.549Z,13.92
2022-10-25T01:32:52.524Z,13.85
2022-10-25T01:38:49.937Z,13.82
2022-10-25T01:44:40.555Z,13.72
2022-10-25T01:50:27.472Z,13.61
2022-10-25T01:56:11.632Z,13.53
2022-10-25T02:02:04.587Z,13.44
2022-10-25T02:07:51.569Z,13.40
2022-10-25T02:13:43.639Z,13.46
2022-10-25T02:19:27.502Z,13.49
2022-10-25T02:25:09.508Z,13.46
2022-10-25T02:30:51.472Z,13.42
2022-10-25T02:36:36.787Z,13.38
2022-10-25T02:42:16.635Z,13.31
2022-10-25T02:47:56.494Z,13.28
2022-10-25T02:53:36.570Z,13.27
2022-10-25T02:59:17.566Z,13.23
2022-10-25T03:05:00.624Z,13.21
2022-10-25T03:10:40.518Z,13.21
2022-10-25T03:16:21.579Z,13.21
2022-10-25T03:22:01.541Z,13.14
2022-10-25T03:27:41.705Z,13.02
2022-10-25T03:33:21.712Z,13.00
2022-10-25T03:39:01.514Z,13.02
2022-10-25T03:44:41.653Z,13.00
2022-10-25T03:50:23.566Z,12.95
2022-10-25T03:56:04.169Z,12.84
2022-10-25T04:01:50.682Z,12.78
2022-10-25T04:07:30.547Z,12.76
2022-10-25T04:13:10.592Z,12.82
2022-10-25T04:18:50.601Z,12.82
2022-10-25T04:24:30.588Z,12.80
2022-10-25T04:30:10.558Z,12.78
2022-10-25T04:35:50.550Z,12.78
2022-10-25T04:41:30.513Z,12.85
2022-10-25T04:47:10.727Z,12.87
2022-10-25T04:52:50.681Z,12.83
2022-10-25T04:58:31.757Z,12.79
2022-10-25T05:04:11.589Z,12.77
2022-10-25T05:09:51.529Z,12.82
2022-10-25T05:15:31.513Z,12.78
2022-10-25T05:21:13.568Z,12.69
2022-10-25T05:26:53.500Z,12.60
2022-10-25T05:32:33.627Z,12.52
2022-10-25T05:38:14.588Z,12.51
2022-10-25T05:43:55.604Z,12.55
2022-10-25T05:49:35.786Z,12.62
2022-10-25T05:55:15.585Z,12.71
2022-10-25T06:00:55.625Z,12.73
2022-10-25T06:06:40.610Z,12.82
2022-10-25T06:12:20.630Z,13.03
2022-10-25T06:18:00.617Z,13.22
2022-10-25T06:23:42.643Z,13.42
2022-10-25T06:29:22.554Z,14.18
2022-10-25T06:35:02.642Z,15.36
2022-10-25T06:40:42.634Z,15.36
2022-10-25T06:46:23.645Z,15.07
2022-10-25T06:52:01.577Z,15.15
2022-10-25T06:57:41.603Z,15.20
2022-10-25T07:03:36.630Z,15.17
2022-10-25T07:09:19.619Z,15.18
2022-10-25T07:14:59.636Z,15.17
2022-10-25T07:20:39.619Z,16.05
2022-10-25T07:26:19.635Z,18.79
2022-10-25T07:31:59.602Z,21.08
2022-10-25T07:37:39.635Z,23.10
2022-10-25T07:43:17.641Z,24.13
2022-10-25T07:48:58.612Z,24.30
2022-10-25T07:54:38.684Z,25.13
2022-10-25T08:00:19.623Z,24.94
2022-10-25T08:06:01.670Z,23.52
2022-10-25T08:11:41.667Z,21.81
2022-10-25T08:17:22.650Z,20.63
2022-10-25T08:23:02.631Z,19.68
2022-10-25T08:28:42.615Z,18.95
2022-10-25T08:34:22.694Z,18.84
2022-10-25T08:40:02.674Z,19.84
2022-10-25T08:45:50.645Z,20.45
2022-10-25T08:51:40.658Z,19.98
2022-10-25T08:57:43.833Z,19.43
2022-10-25T09:03:31.745Z,18.64
2022-10-25T09:09:22.679Z,17.93
2022-10-25T09:15:09.655Z,17.45
2022-10-25T09:20:57.684Z,17.20
2022-10-25T09:26:47.730Z,17.41
2022-10-25T09:32:32.681Z,17.70
2022-10-25T09:38:18.651Z,18.18
2022-10-25T09:44:04.723Z,18.99
2022-10-25T09:49:50.702Z,19.98
2022-10-25T09:55:42.697Z,20.32
2022-10-25T10:01:26.759Z,20.17
2022-10-25T10:07:18.696Z,19.71
2022-10-25T10:13:03.780Z,19.09
2022-10-25T10:18:46.765Z,18.52
2022-10-25T10:24:33.731Z,18.28
2022-10-25T10:30:15.718Z,18.02
2022-10-25T10:35:55.727Z,17.81
2022-10-25T10:41:41.697Z,17.56
2022-10-25T10:47:33.701Z,17.55
2022-10-25T10:53:15.772Z,17.91
2022-10-25T10:59:02.054Z,18.26
2022-10-25T11:04:41.760Z,18.44
2022-10-25T11:10:45.731Z,18.39
2022-10-25T11:17:03.755Z,18.45
2022-10-25T11:23:08.760Z,18.62
2022-10-25T11:29:00.779Z,18.94
2022-10-25T11:34:51.791Z,19.01
2022-10-25T11:40:34.829Z,19.18
2022-10-25T11:46:18.827Z,19.23
2022-10-25T11:52:04.811Z,19.08
2022-10-25T11:57:57.859Z,18.99
2022-10-25T12:03:49.872Z,18.97
2022-10-25T12:09:41.891Z,19.00
2022-10-25T12:15:31.800Z,19.08
2022-10-25T12:21:12.802Z,19.15
2022-10-25T12:26:54.754Z,19.22
2022-10-25T12:32:39.798Z,19.29
2022-10-25T12:38:26.933Z,19.20
2022-10-25T12:44:23.824Z,18.82
2022-10-25T12:50:43.806Z,18.46
2022-10-25T12:56:39.803Z,18.14
2022-10-25T13:02:34.880Z,17.95
2022-10-25T13:08:23.815Z,17.84
2022-10-25T13:14:05.803Z,17.79
2022-10-25T13:20:01.044Z,17.85
2022-10-25T13:26:16.811Z,17.74
2022-10-25T13:32:18.894Z,17.56
2022-10-25T13:38:00.836Z,17.53
2022-10-25T13:43:40.943Z,17.45
2022-10-25T13:49:48.791Z,17.21
2022-10-25T13:55:35.828Z,17.07
2022-10-25T14:02:07.911Z,17.20
2022-10-25T14:08:08.827Z,17.45
2022-10-25T14:14:01.884Z,17.38
2022-10-25T14:19:49.842Z,17.12
2022-10-25T14:25:36.845Z,16.78
2022-10-25T14:31:17.893Z,16.44
2022-10-25T14:37:00.906Z,16.19
2022-10-25T14:42:41.005Z,15.92
2022-10-25T14:48:24.873Z,15.67
2022-10-25T14:54:09.833Z,15.47
2022-10-25T14:59:54.948Z,15.31
2022-10-25T15:05:37.987Z,15.17
2022-10-25T15:11:21.846Z,15.06
2022-10-25T15:17:01.878Z,15.01
2022-10-25T15:22:45.043Z,14.97
2022-10-25T15:28:27.951Z,14.90
2022-10-25T15:34:16.888Z,14.83
2022-10-25T15:39:58.944Z,14.81
2022-10-25T15:45:38.880Z,14.77
2022-10-25T15:51:19.894Z,14.70
2022-10-25T15:57:00.902Z,14.63
2022-10-25T16:02:41.044Z,14.60
2022-10-25T16:08:21.978Z,14.55
2022-10-25T16:14:09.919Z,14.47
2022-10-25T16:19:49.958Z,14.46
2022-10-25T16:25:33.140Z,14.48
2022-10-25T16:31:12.944Z,14.47
2022-10-25T16:36:53.105Z,14.45
2022-10-25T16:42:45.110Z,14.47
2022-10-25T16:48:24.959Z,14.46
2022-10-25T16:54:05.898Z,14.42
2022-10-25T16:59:45.948Z,14.39
2022-10-25T17:05:32.132Z,14.39
2022-10-25T17:11:11.958Z,14.34
2022-10-25T17:16:53.943Z,14.26
2022-10-25T17:22:28.969Z,14.23
2022-10-25T17:28:08.941Z,14.22
2022-10-25T17:33:50.352Z,14.16
2022-10-25T17:39:29.933Z,14.11
2022-10-25T17:45:09.994Z,14.10
2022-10-25T17:50:51.070Z,14.13
2022-10-25T18:02:12.102Z,14.10
2022-10-25T18:07:52.234Z,14.09
2022-10-25T18:13:33.951Z,14.10
2022-10-25T18:19:16.039Z,14.10
2022-10-25T18:24:56.038Z,14.06
2022-10-25T18:30:36.000Z,14.04
2022-10-25T18:36:18.037Z,14.02
2022-10-25T18:41:57.975Z,14.00
2022-10-25T18:47:38.045Z,13.98
2022-10-25T18:53:18.026Z,13.99
2022-10-25T18:58:58.079Z,14.00
2022-10-25T19:04:38.071Z,13.99
2022-10-25T19:10:19.052Z,13.97
2022-10-25T19:16:06.063Z,13.96
2022-10-25T19:21:46.070Z,13.96
2022-10-25T19:27:26.031Z,13.93
2022-10-25T19:33:08.286Z,13.89
2022-10-25T19:38:48.015Z,13.87
2022-10-25T19:44:28.070Z,13.86
2022-10-25T19:50:08.045Z,13.82
2022-10-25T19:55:48.058Z,13.74
2022-10-25T20:01:30.126Z,13.69
2022-10-25T20:07:10.026Z,13.68
2022-10-25T20:12:50.049Z,13.66
2022-10-25T20:18:30.092Z,13.62
2022-10-25T20:24:12.101Z,13.59
2022-10-25T20:29:52.061Z,13.58
2022-10-25T20:35:33.084Z,13.57
2022-10-25T20:41:18.094Z,13.52
2022-10-25T20:46:58.066Z,13.44
2022-10-25T20:52:47.665Z,13.40
2022-10-25T20:58:28.082Z,13.32
2022-10-25T21:04:08.111Z,13.23
2022-10-25T21:09:49.508Z,13.18
2022-10-25T21:15:29.088Z,13.16
2022-10-25T21:21:13.129Z,13.17
2022-10-25T21:26:54.148Z,13.14
2022-10-25T21:32:34.169Z,13.09
2022-10-25T21:38:14.098Z,13.06
2022-10-25T21:43:57.176Z,13.09
2022-10-25T21:49:37.097Z,13.14
2022-10-25T21:55:18.098Z,13.16
2022-10-25T22:00:58.123Z,13.15
2022-10-25T22:06:40.140Z,13.16
2022-10-25T22:12:20.200Z,13.17
2022-10-25T22:18:07.203Z,13.14
2022-10-25T22:23:48.137Z,13.04
2022-10-25T22:29:29.222Z,12.96
2022-10-25T22:35:09.189Z,12.93
2022-10-25T22:40:49.167Z,12.93
2022-10-25T22:46:32.161Z,12.91
2022-10-25T22:52:12.202Z,12.84
2022-10-25T22:57:52.166Z,12.71
2022-10-25T23:03:32.173Z,12.62
2022-10-25T23:09:16.210Z,12.49
2022-10-25T23:14:56.181Z,12.24
2022-10-25T23:20:36.163Z,12.02
2022-10-25T23:26:16.244Z,11.89
2022-10-25T23:31:56.225Z,11.77
2022-10-25T23:37:36.172Z,11.65
2022-10-25T23:43:16.227Z,11.54
2022-10-25T23:48:56.268Z,11.49
2022-10-25T23:54:36.236Z,11.50
